SLK weather

Adirondack Regional Airport
Saranac Lake, New York, United States

Public forecast

Using degrees Fahrenheit for public forecast. Weather courtesy of forecast.io.

METAR (pilot weather report)

Retrieved 2019/04/26 02:51 UTC (26 minutes ago):

KSLK 260251Z AUTO 03004KT 10SM CLR 04/02 A2986 RMK AO2 SLP122 T00440022 58003

TAF (pilot weather forecast)

Forecast is more than 12 hours old.

Retrieved 2019/04/25 00:22 UTC (1 day ago):

TAF KSLK 252320Z 2600/2624 00000KT P6SM FEW120 FM260200 00000KT P6SM BKN120 FM260800 00000KT P6SM VCSH BKN100 FM261200 14010KT P6SM -RA OVC050 FM261400 16013G21KT 4SM -RA BR OVC025 FM261800 15013G21KT 6SM -RA BR OVC035